Hlavní strana
METAR-TAF:

METAR-TAF

Letiště :

Heidrun, Norsko

zeměpisná šířka: 65-19-30N, zeměpisná délka: 007-19-36E, výška: 0 m

Aktuální stav počasí

Zpráva byla vytvořena před 1 hodinou a 15 minutami, v 01:50 UTC
Západojihozápadní vítr 19 kt
Teplota 5°C
Vlhkost vzduchu 70%
Tlak 1018 hPa
Viditelnost 10 km a více
Skoro jasno ve výšce 2000 ft
Oblačno až skoro zataženo ve výšce 2500 ft
slabé mrholení

METAR: ENHE 220150Z 25019KT 9999 -DZ FEW020 BKN025 05/00 Q1018 W///S6

Čas: 04:05 (03:05 UTC)

Předpověď počasí

Zpráva byla vytvořena před 1 hodinou a 5 minutami, v 02:00 UTC
Předpověď platná od 22 v 03 UTC do 22 v 12 UTC
Západojihozápadní vítr 20 kt
Viditelnost 10 km a více
Skoro jasno ve výšce 2000 ft, Vertikální cumulus.
Oblačno až skoro zataženo ve výšce 4000 ft
Změna
od 22 v 06 UTC do 22 v 09 UTC
Jižní vítr 35 kt
Změna
od 22 v 10 UTC do 22 v 12 UTC
Jižní vítr 48 kt

TAF: ENHE 220200Z 2203/2212 24020KT 9999 FEW020TCU BKN040 BECMG 2206/2209 19035KT BECMG 2210/2212 18048KT

Stav a předpovědi počasí z více než 4 000 letišť (zprávy METAR a TAF).

Červené a žluté tečky na mapě představují dostupné meteorologické stanice.

Když kurzor umístíte na tečku, zobrazí se název stanice.

Pak kliknutím zobrazíte stav a předpověď počasí.

Chcete-li změnit mapu, kliknutím na zelené tlačítko se znaménkem +mapu přiblížíte, kliknutím na zelené tlačítko se znaménkem – mapu oddálíte a kliknutím na zelené šipky přejdete na sousední mapy.


METAR-TAF: